createdAt,value
2023-03-30T00:01:30.690Z,100394.66
2023-03-30T00:04:27.309Z,100391.59
2023-03-30T00:06:54.393Z,100385.63
2023-03-30T00:09:22.803Z,100378.59
2023-03-30T00:11:49.471Z,100381.25
2023-03-30T00:14:17.980Z,100388.03
2023-03-30T00:16:44.595Z,100376.84
2023-03-30T00:19:11.491Z,100386.44
2023-03-30T00:24:13.632Z,100384.72
2023-03-30T00:29:58.759Z,100386.69
2023-03-30T00:43:28.572Z,100368.34
2023-03-30T00:45:57.380Z,100363.22
2023-03-30T00:48:36.337Z,100362.66
2023-03-30T00:51:09.784Z,100360.25
2023-03-30T00:53:41.345Z,100364.38
2023-03-30T00:56:11.174Z,100356.78
2023-03-30T00:58:40.859Z,100354.84
2023-03-30T01:01:10.953Z,100355.16
2023-03-30T01:03:43.578Z,100352.94
2023-03-30T01:06:11.473Z,100348.47
2023-03-30T01:08:39.216Z,100346.53
2023-03-30T01:11:29.664Z,100341.34
2023-03-30T01:14:06.474Z,100329.44
2023-03-30T01:16:36.486Z,100325.66
2023-03-30T01:19:12.029Z,100321.03
2023-03-30T01:22:00.286Z,100312.56
2023-03-30T01:24:49.355Z,100315.53
2023-03-30T01:27:49.930Z,100305.53
2023-03-30T01:30:19.454Z,100302.75
2023-03-30T01:33:23.441Z,100297.00
2023-03-30T01:36:02.042Z,100300.56
2023-03-30T01:38:46.568Z,100299.41
2023-03-30T01:41:54.918Z,100295.06
2023-03-30T01:44:34.355Z,100294.28
2023-03-30T01:47:16.808Z,100305.47
2023-03-30T01:50:26.972Z,100301.53
2023-03-30T01:56:19.906Z,100297.25
2023-03-30T01:58:56.305Z,100289.31
2023-03-30T02:01:26.044Z,100293.59
2023-03-30T02:03:57.734Z,100304.63
2023-03-30T02:06:38.843Z,100301.31
2023-03-30T02:11:44.950Z,100289.56
2023-03-30T02:14:13.692Z,100287.91
2023-03-30T02:16:59.261Z,100284.81
2023-03-30T02:19:31.736Z,100286.50
2023-03-30T02:22:18.912Z,100287.97
2023-03-30T02:24:58.433Z,100274.19
2023-03-30T02:27:26.185Z,100273.53
2023-03-30T02:29:52.909Z,100269.50
2023-03-30T02:32:23.510Z,100269.88
2023-03-30T02:35:09.371Z,100263.81
2023-03-30T02:37:47.870Z,100275.41
2023-03-30T02:40:26.534Z,100286.19
2023-03-30T02:43:33.573Z,100288.75
2023-03-30T02:46:09.671Z,100281.75
2023-03-30T02:49:08.380Z,100274.84
2023-03-30T02:51:43.939Z,100273.63
2023-03-30T02:55:06.690Z,100282.16
2023-03-30T02:58:10.312Z,100276.12
2023-03-30T03:01:00.941Z,100261.75
2023-03-30T03:03:34.197Z,100274.63
2023-03-30T03:06:04.300Z,100281.41
2023-03-30T03:08:35.732Z,100280.59
2023-03-30T03:11:02.495Z,100276.16
2023-03-30T03:13:29.400Z,100287.91
2023-03-30T03:15:57.008Z,100285.75
2023-03-30T03:18:24.556Z,100286.06
2023-03-30T03:20:51.401Z,100282.09
2023-03-30T03:23:18.127Z,100275.03
2023-03-30T03:25:44.686Z,100274.53
2023-03-30T03:28:20.563Z,100283.28
2023-03-30T03:31:09.280Z,100285.88
2023-03-30T03:33:48.124Z,100288.41
2023-03-30T03:36:16.590Z,100293.06
2023-03-30T03:38:43.202Z,100294.19
2023-03-30T03:41:10.105Z,100297.34
2023-03-30T03:43:46.255Z,100298.37
2023-03-30T03:46:12.898Z,100291.75
2023-03-30T03:48:39.940Z,100292.91
2023-03-30T03:51:07.141Z,100288.50
2023-03-30T03:53:33.808Z,100288.53
2023-03-30T03:56:00.361Z,100285.72
2023-03-30T04:01:03.353Z,100275.84
2023-03-30T04:03:30.618Z,100272.31
2023-03-30T04:06:02.200Z,100267.16
2023-03-30T04:08:38.122Z,100260.63
2023-03-30T04:11:20.090Z,100249.63
2023-03-30T04:14:05.039Z,100250.84
2023-03-30T04:16:31.643Z,100253.97
2023-03-30T04:18:59.908Z,100256.47
2023-03-30T04:21:29.712Z,100256.19
2023-03-30T04:23:56.422Z,100254.06
2023-03-30T04:26:28.570Z,100242.84
2023-03-30T04:29:01.606Z,100234.25
2023-03-30T04:31:34.748Z,100239.22
2023-03-30T04:34:02.715Z,100247.50
2023-03-30T04:36:29.499Z,100254.53
2023-03-30T04:39:46.394Z,100258.13
2023-03-30T04:42:48.756Z,100252.81
2023-03-30T04:45:18.426Z,100256.47
2023-03-30T04:47:46.669Z,100251.09
2023-03-30T04:50:13.854Z,100241.66
2023-03-30T04:52:40.472Z,100245.75
2023-03-30T04:55:08.713Z,100237.91
2023-03-30T04:57:35.434Z,100236.72
2023-03-30T05:00:02.007Z,100229.44
2023-03-30T05:02:28.712Z,100225.41
2023-03-30T05:04:55.326Z,100234.91
2023-03-30T05:07:22.024Z,100229.44
2023-03-30T05:09:48.626Z,100235.25
2023-03-30T05:12:16.661Z,100241.94
2023-03-30T05:14:43.229Z,100240.81
2023-03-30T05:17:10.189Z,100236.53
2023-03-30T05:19:36.881Z,100237.72
2023-03-30T05:22:03.460Z,100244.16
2023-03-30T05:24:30.077Z,100244.75
2023-03-30T05:26:56.834Z,100242.16
2023-03-30T05:29:23.673Z,100244.81
2023-03-30T05:31:50.254Z,100242.12
2023-03-30T05:34:17.123Z,100242.94
2023-03-30T05:36:44.000Z,100239.88
2023-03-30T05:39:10.632Z,100239.97
2023-03-30T05:41:37.195Z,100240.47
2023-03-30T05:44:04.947Z,100238.09
2023-03-30T05:46:31.612Z,100229.66
2023-03-30T05:48:58.181Z,100230.25
2023-03-30T05:51:25.514Z,100225.69
2023-03-30T05:53:52.378Z,100216.69
2023-03-30T05:56:18.970Z,100225.25
2023-03-30T05:58:45.667Z,100229.09
2023-03-30T06:01:13.448Z,100233.81
2023-03-30T06:03:42.675Z,100242.75
2023-03-30T06:06:09.989Z,100245.91
2023-03-30T06:08:36.865Z,100235.59
2023-03-30T06:11:04.408Z,100231.28
2023-03-30T06:13:31.831Z,100234.75
2023-03-30T06:15:59.184Z,100231.09
2023-03-30T06:18:27.399Z,100222.34
2023-03-30T06:20:53.953Z,100217.69
2023-03-30T06:23:20.566Z,100216.19
2023-03-30T06:25:52.698Z,100217.31
2023-03-30T06:28:20.585Z,100204.66
2023-03-30T06:30:49.278Z,100208.03
2023-03-30T06:33:17.688Z,100209.66
2023-03-30T06:35:49.207Z,100202.69
2023-03-30T06:38:17.451Z,100195.59
2023-03-30T06:40:44.085Z,100199.97
2023-03-30T06:43:25.432Z,100200.53
2023-03-30T06:45:57.069Z,100201.38
2023-03-30T06:48:24.444Z,100189.22
2023-03-30T06:50:52.151Z,100191.22
2023-03-30T06:53:19.304Z,100198.34
2023-03-30T06:55:51.255Z,100196.72
2023-03-30T06:58:18.206Z,100196.87
2023-03-30T07:00:44.984Z,100197.78
2023-03-30T07:03:11.680Z,100202.06
2023-03-30T07:05:38.297Z,100214.09
2023-03-30T07:08:06.647Z,100215.16
2023-03-30T07:10:33.323Z,100217.34
2023-03-30T07:12:59.937Z,100220.53
2023-03-30T07:15:26.549Z,100216.72
2023-03-30T07:17:53.541Z,100217.25
2023-03-30T07:20:20.458Z,100211.38
2023-03-30T07:22:46.991Z,100203.91
2023-03-30T07:25:13.682Z,100202.94
2023-03-30T07:27:41.064Z,100195.50
2023-03-30T07:30:18.760Z,100212.16
2023-03-30T07:32:50.934Z,100222.47
2023-03-30T07:35:18.466Z,100209.78
2023-03-30T07:37:45.170Z,100222.09
2023-03-30T07:40:12.839Z,100211.19
2023-03-30T07:42:41.217Z,100203.47
2023-03-30T07:45:08.364Z,100200.72
2023-03-30T07:47:35.064Z,100196.41
2023-03-30T07:50:01.741Z,100196.16
2023-03-30T07:52:28.394Z,100199.09
2023-03-30T07:54:56.295Z,100210.34
2023-03-30T07:57:23.123Z,100215.78
2023-03-30T08:02:45.309Z,100215.72
2023-03-30T08:05:13.040Z,100207.22
2023-03-30T08:07:41.662Z,100216.69
2023-03-30T08:18:58.585Z,100193.00
2023-03-30T08:21:26.214Z,100201.75
2023-03-30T08:23:53.688Z,100193.13
2023-03-30T08:26:20.545Z,100194.28
2023-03-30T08:28:47.147Z,100187.03
2023-03-30T08:31:13.711Z,100178.16
2023-03-30T08:33:40.325Z,100184.44
2023-03-30T08:36:07.012Z,100187.50
2023-03-30T08:38:33.877Z,100184.19
2023-03-30T08:41:00.457Z,100191.12
2023-03-30T08:43:45.632Z,100188.28
2023-03-30T08:46:16.082Z,100185.31
2023-03-30T08:48:43.231Z,100189.28
2023-03-30T08:51:27.557Z,100180.44
2023-03-30T08:54:05.482Z,100188.19
2023-03-30T08:56:39.939Z,100191.03
2023-03-30T08:59:39.110Z,100183.41
2023-03-30T09:02:19.760Z,100193.56
2023-03-30T09:05:08.561Z,100180.13
2023-03-30T09:07:52.614Z,100174.50
2023-03-30T09:10:22.633Z,100174.84
2023-03-30T09:12:53.539Z,100180.38
2023-03-30T09:15:31.760Z,100182.44
2023-03-30T09:18:10.751Z,100175.50
2023-03-30T09:20:39.797Z,100158.81
2023-03-30T09:23:13.834Z,100170.50
2023-03-30T09:25:51.130Z,100164.44
2023-03-30T09:28:22.330Z,100160.34
2023-03-30T09:30:56.284Z,100162.03
2023-03-30T09:33:54.062Z,100159.94
2023-03-30T09:36:29.325Z,100151.16
2023-03-30T09:38:56.187Z,100152.66
2023-03-30T09:41:40.627Z,100149.94
2023-03-30T09:44:19.037Z,100140.22
2023-03-30T09:46:46.867Z,100137.81
2023-03-30T09:49:17.246Z,100132.69
2023-03-30T09:52:14.885Z,100125.72
2023-03-30T09:54:41.674Z,100123.34
2023-03-30T09:57:30.253Z,100114.44
2023-03-30T09:59:59.867Z,100106.59
2023-03-30T10:02:31.084Z,100112.84
2023-03-30T10:05:01.339Z,100117.41
2023-03-30T10:07:34.677Z,100120.53
2023-03-30T10:10:32.564Z,100107.03
2023-03-30T10:13:07.171Z,100102.09
2023-03-30T10:15:39.336Z,100105.37
2023-03-30T10:18:43.467Z,100106.97
2023-03-30T10:21:22.796Z,100105.34
2023-03-30T10:24:25.563Z,100101.59
2023-03-30T10:26:56.444Z,100105.19
2023-03-30T10:29:26.283Z,100087.13
2023-03-30T10:32:00.576Z,100086.41
2023-03-30T10:34:52.389Z,100080.19
2023-03-30T10:37:32.722Z,100068.84
2023-03-30T10:40:02.692Z,100065.03
2023-03-30T10:42:32.955Z,100061.84
2023-03-30T10:45:01.722Z,100052.44
2023-03-30T10:47:52.378Z,100051.09
2023-03-30T10:50:31.752Z,100057.00
2023-03-30T10:53:35.732Z,100051.00
2023-03-30T10:56:03.100Z,100051.72
2023-03-30T10:59:08.357Z,100048.06
2023-03-30T11:02:00.921Z,100045.97
2023-03-30T11:04:48.103Z,100033.59
2023-03-30T11:07:37.054Z,100024.13
2023-03-30T11:10:27.431Z,100030.63
2023-03-30T11:13:02.436Z,100022.12
2023-03-30T11:15:44.946Z,100036.06
2023-03-30T11:18:17.761Z,100029.63
2023-03-30T11:20:52.626Z,100043.28
2023-03-30T11:23:35.554Z,100036.66
2023-03-30T11:26:15.848Z,100034.66
2023-03-30T11:29:01.065Z,100022.59
2023-03-30T11:31:31.418Z,100021.94
2023-03-30T11:34:09.421Z,100014.66
2023-03-30T11:37:00.055Z,100013.09
2023-03-30T11:39:33.179Z,100006.81
2023-03-30T11:42:30.025Z,99999.94
2023-03-30T11:44:57.471Z,99999.47
2023-03-30T11:47:36.915Z,99995.50
2023-03-30T11:50:13.371Z,99999.19
2023-03-30T11:53:04.550Z,99992.87
2023-03-30T11:55:40.316Z,99990.12
2023-03-30T11:58:14.765Z,99981.53
2023-03-30T12:00:56.446Z,99971.78
2023-03-30T12:03:46.898Z,99970.63
2023-03-30T12:06:22.653Z,99960.75
2023-03-30T12:08:55.381Z,99959.25
2023-03-30T12:12:03.709Z,99956.31
2023-03-30T12:14:43.091Z,99959.72
2023-03-30T12:17:15.017Z,99953.63
2023-03-30T12:19:56.570Z,99951.28
2023-03-30T12:23:01.051Z,99943.94
2023-03-30T12:25:44.274Z,99934.31
2023-03-30T12:28:11.849Z,99936.25
2023-03-30T12:31:04.879Z,99930.41
2023-03-30T12:33:36.677Z,99922.50
2023-03-30T12:36:43.050Z,99918.69
2023-03-30T12:39:26.680Z,99911.91
2023-03-30T12:42:05.438Z,99906.56
2023-03-30T12:45:01.638Z,99907.06
2023-03-30T12:48:03.184Z,99904.75
2023-03-30T12:50:54.547Z,99900.53
2023-03-30T12:53:39.641Z,99894.37
2023-03-30T12:56:28.977Z,99886.44
2023-03-30T12:59:58.829Z,99883.53
2023-03-30T13:02:55.716Z,99870.78
2023-03-30T13:05:39.716Z,99873.66
2023-03-30T13:08:36.208Z,99872.31
2023-03-30T13:11:21.969Z,99867.59
2023-03-30T13:14:02.234Z,99863.00
2023-03-30T13:17:09.244Z,99868.47
2023-03-30T13:19:37.402Z,99861.75
2023-03-30T13:22:28.889Z,99863.53
2023-03-30T13:25:03.863Z,99857.94
2023-03-30T13:27:35.235Z,99856.06
2023-03-30T13:30:03.592Z,99849.75
2023-03-30T13:32:48.892Z,99831.72
2023-03-30T13:35:49.848Z,99839.50
2023-03-30T13:38:40.997Z,99844.34
2023-03-30T13:41:28.932Z,99846.50
2023-03-30T13:44:24.649Z,99848.81
2023-03-30T13:46:54.399Z,99842.94
2023-03-30T13:49:44.972Z,99837.59
2023-03-30T13:52:17.024Z,99839.66
2023-03-30T13:54:44.475Z,99835.19
2023-03-30T13:57:24.668Z,99831.63
2023-03-30T14:00:04.556Z,99820.59
2023-03-30T14:02:31.537Z,99815.19
2023-03-30T14:05:21.771Z,99816.03
2023-03-30T14:07:49.164Z,99804.91
2023-03-30T14:10:21.188Z,99796.34
2023-03-30T14:12:57.812Z,99794.41
2023-03-30T14:15:37.775Z,99796.72
2023-03-30T14:18:05.573Z,99791.84
2023-03-30T14:20:56.466Z,99785.72
2023-03-30T14:23:38.539Z,99782.00
2023-03-30T14:26:15.744Z,99776.59
2023-03-30T14:28:42.709Z,99775.50
2023-03-30T14:31:18.842Z,99767.22
2023-03-30T14:33:45.917Z,99757.66
2023-03-30T14:36:16.838Z,99749.09
2023-03-30T14:38:51.782Z,99734.97
2023-03-30T14:41:20.519Z,99737.41
2023-03-30T14:43:53.915Z,99722.97
2023-03-30T14:46:23.155Z,99722.84
2023-03-30T14:48:50.822Z,99712.78
2023-03-30T14:51:37.747Z,99697.53
2023-03-30T14:54:06.346Z,99696.16
2023-03-30T14:56:33.723Z,99692.03
2023-03-30T14:59:01.695Z,99687.81
2023-03-30T15:01:33.365Z,99676.75
2023-03-30T15:04:09.149Z,99679.91
2023-03-30T15:06:42.625Z,99685.22
2023-03-30T15:09:16.997Z,99672.03
2023-03-30T15:11:49.792Z,99664.38
2023-03-30T15:14:22.397Z,99663.00
2023-03-30T15:16:53.655Z,99654.16
2023-03-30T15:19:30.929Z,99652.81
2023-03-30T15:22:03.262Z,99655.00
2023-03-30T15:24:36.107Z,99642.91
2023-03-30T15:27:05.422Z,99639.19
2023-03-30T15:29:33.040Z,99642.72
2023-03-30T15:32:14.999Z,99633.78
2023-03-30T15:35:15.550Z,99642.66
2023-03-30T15:38:01.957Z,99645.72
2023-03-30T15:40:30.372Z,99673.25
2023-03-30T15:43:25.175Z,99668.28
2023-03-30T15:45:55.693Z,99681.78
2023-03-30T15:48:45.596Z,99694.66
2023-03-30T15:51:16.932Z,99692.78
2023-03-30T15:53:56.957Z,99691.50
2023-03-30T15:56:30.258Z,99701.00
2023-03-30T15:58:58.335Z,99704.59
2023-03-30T16:01:40.173Z,99706.06
2023-03-30T16:04:07.976Z,99698.22
2023-03-30T16:06:35.367Z,99693.97
2023-03-30T16:09:02.056Z,99687.50
2023-03-30T16:11:28.686Z,99679.88
2023-03-30T16:13:55.334Z,99677.38
2023-03-30T16:16:22.168Z,99677.28
2023-03-30T16:18:49.704Z,99678.78
2023-03-30T16:21:18.388Z,99673.63
2023-03-30T16:23:45.431Z,99672.84
2023-03-30T16:26:12.774Z,99668.63
2023-03-30T16:28:42.555Z,99666.41
2023-03-30T16:31:22.228Z,99652.00
2023-03-30T16:33:49.319Z,99647.47
2023-03-30T16:36:18.462Z,99644.91
2023-03-30T16:38:46.137Z,99655.59
2023-03-30T16:41:20.532Z,99651.06
2023-03-30T16:43:47.601Z,99642.81
2023-03-30T16:46:16.288Z,99642.81
2023-03-30T16:48:43.160Z,99651.63
2023-03-30T16:51:11.566Z,99648.72
2023-03-30T16:53:38.218Z,99664.56
2023-03-30T16:56:05.794Z,99659.50
2023-03-30T16:58:32.434Z,99659.31
2023-03-30T17:01:05.311Z,99656.56
2023-03-30T17:03:32.123Z,99668.06
2023-03-30T17:05:59.007Z,99657.22
2023-03-30T17:08:28.098Z,99659.81
2023-03-30T17:10:58.418Z,99652.50
2023-03-30T17:13:25.213Z,99651.19
2023-03-30T17:15:52.126Z,99649.66
2023-03-30T17:18:21.429Z,99651.59
2023-03-30T17:20:53.705Z,99644.34
2023-03-30T17:23:22.203Z,99641.28
2023-03-30T17:25:49.713Z,99634.81
2023-03-30T17:28:35.818Z,99635.63
2023-03-30T17:31:05.077Z,99640.72
2023-03-30T17:33:34.330Z,99645.09
2023-03-30T17:36:25.376Z,99635.59
2023-03-30T17:38:52.502Z,99628.75
2023-03-30T17:41:20.364Z,99624.84
2023-03-30T17:43:48.158Z,99624.84
2023-03-30T17:46:17.876Z,99621.59
2023-03-30T17:48:44.622Z,99609.91
2023-03-30T17:51:11.187Z,99611.28
2023-03-30T17:53:37.860Z,99616.44
2023-03-30T17:56:04.980Z,99614.28
2023-03-30T17:58:35.779Z,99608.25
2023-03-30T18:01:05.527Z,99616.41
2023-03-30T18:03:32.920Z,99608.00
2023-03-30T18:06:01.447Z,99614.41
2023-03-30T18:08:28.905Z,99614.97
2023-03-30T18:11:00.211Z,99609.94
2023-03-30T18:13:28.682Z,99622.09
2023-03-30T18:15:56.912Z,99625.00
2023-03-30T18:18:26.300Z,99622.03
2023-03-30T18:20:55.102Z,99621.47
2023-03-30T18:23:24.409Z,99622.91
2023-03-30T18:25:51.147Z,99628.56
2023-03-30T18:28:23.141Z,99638.13
2023-03-30T18:30:51.167Z,99662.16
2023-03-30T18:33:17.869Z,99680.31
2023-03-30T18:35:46.662Z,99694.03
2023-03-30T18:38:15.386Z,99702.00
2023-03-30T18:40:45.441Z,99683.41
2023-03-30T18:43:12.923Z,99680.72
2023-03-30T18:45:41.773Z,99693.50
2023-03-30T18:48:12.791Z,99684.47
2023-03-30T18:50:43.396Z,99681.41
2023-03-30T18:53:12.863Z,99674.50
2023-03-30T18:55:42.802Z,99677.50
2023-03-30T18:58:15.535Z,99660.06
2023-03-30T19:00:45.023Z,99659.50
2023-03-30T19:03:13.310Z,99658.00
2023-03-30T19:05:40.793Z,99645.59
2023-03-30T19:08:14.601Z,99632.34
2023-03-30T19:10:43.500Z,99632.88
2023-03-30T19:13:18.159Z,99620.03
2023-03-30T19:15:45.705Z,99596.19
2023-03-30T19:20:50.084Z,99580.22
2023-03-30T19:23:18.232Z,99605.25
2023-03-30T19:25:46.210Z,99612.47
2023-03-30T19:28:15.238Z,99613.66
2023-03-30T19:30:42.620Z,99616.31
2023-03-30T19:33:27.789Z,99616.28
2023-03-30T19:36:12.848Z,99611.72
2023-03-30T19:38:45.895Z,99603.69
2023-03-30T19:41:12.594Z,99594.66
2023-03-30T19:43:39.132Z,99594.72
2023-03-30T19:46:06.106Z,99598.69
2023-03-30T19:48:38.047Z,99608.09
2023-03-30T19:51:04.839Z,99617.03
2023-03-30T19:53:31.540Z,99613.63
2023-03-30T19:56:01.062Z,99617.19
2023-03-30T19:58:28.678Z,99611.13
2023-03-30T20:00:55.494Z,99615.09
2023-03-30T20:03:22.173Z,99614.06
2023-03-30T20:08:30.673Z,99613.81
2023-03-30T20:10:59.357Z,99601.91
2023-03-30T20:13:27.300Z,99601.78
2023-03-30T20:15:55.219Z,99602.19
2023-03-30T20:18:21.802Z,99601.09
2023-03-30T20:20:48.387Z,99600.84
2023-03-30T20:23:15.002Z,99603.66
2023-03-30T20:25:46.648Z,99605.69
2023-03-30T20:28:13.228Z,99603.78
2023-03-30T20:30:39.775Z,99589.87
2023-03-30T20:35:41.830Z,99594.84
2023-03-30T20:49:19.256Z,99585.66
2023-03-30T20:51:46.416Z,99581.50
2023-03-30T20:54:13.037Z,99580.16
2023-03-30T20:56:39.654Z,99566.75
2023-03-30T20:59:06.318Z,99573.87
2023-03-30T21:01:34.156Z,99576.28
2023-03-30T21:04:02.361Z,99576.44
2023-03-30T21:06:31.503Z,99584.34
2023-03-30T21:09:01.352Z,99576.22
2023-03-30T21:11:29.725Z,99575.28
2023-03-30T21:13:56.631Z,99570.94
2023-03-30T21:16:24.628Z,99559.66
2023-03-30T21:18:51.533Z,99552.53
2023-03-30T21:21:18.778Z,99552.03
2023-03-30T21:23:46.200Z,99554.78
2023-03-30T21:26:13.766Z,99548.06
2023-03-30T21:28:41.449Z,99550.28
2023-03-30T21:31:10.967Z,99541.25
2023-03-30T21:34:43.864Z,99522.84
2023-03-30T21:37:25.243Z,99524.69
2023-03-30T21:39:51.816Z,99521.63
2023-03-30T21:42:18.396Z,99506.59
2023-03-30T21:44:44.982Z,99507.97
2023-03-30T21:47:15.004Z,99517.12
2023-03-30T21:49:41.614Z,99546.72
2023-03-30T22:02:42.584Z,99563.94
2023-03-30T22:05:56.222Z,99564.34
2023-03-30T22:42:10.269Z,99560.00
2023-03-30T22:44:37.002Z,99561.44
2023-03-30T22:47:03.571Z,99563.06
2023-03-30T22:49:30.292Z,99572.31
2023-03-30T22:51:56.935Z,99569.19
2023-03-30T22:54:23.605Z,99573.84
2023-03-30T22:57:08.757Z,99562.97
2023-03-30T23:00:22.352Z,99558.91
2023-03-30T23:32:22.262Z,99545.81
2023-03-30T23:34:48.853Z,99549.88
2023-03-30T23:37:15.517Z,99542.16
2023-03-30T23:39:42.105Z,99545.94
2023-03-30T23:42:08.723Z,99543.81
2023-03-30T23:44:35.417Z,99542.97
2023-03-30T23:47:45.920Z,99534.94
2023-03-30T23:50:46.769Z,99549.78
